sensor_id;sensor_type;location;lat;lon;timestamp;P1;durP1;ratioP1;P2;durP2;ratioP2
47429;SDS011;33181;49.246;7.372;2023-08-07T00:00:50;6.50;;;3.00;;
47429;SDS011;33181;49.246;7.372;2023-08-07T00:03:16;4.60;;;3.00;;
47429;SDS011;33181;49.246;7.372;2023-08-07T00:05:46;6.50;;;3.20;;
47429;SDS011;33181;49.246;7.372;2023-08-07T00:08:12;4.43;;;2.80;;
47429;SDS011;33181;49.246;7.372;2023-08-07T00:10:38;4.07;;;2.90;;
47429;SDS011;33181;49.246;7.372;2023-08-07T00:13:04;4.40;;;2.73;;
47429;SDS011;33181;49.246;7.372;2023-08-07T00:15:31;6.27;;;3.40;;
47429;SDS011;33181;49.246;7.372;2023-08-07T00:17:58;6.00;;;3.43;;
47429;SDS011;33181;49.246;7.372;2023-08-07T00:20:24;5.10;;;2.97;;
47429;SDS011;33181;49.246;7.372;2023-08-07T00:22:50;7.90;;;3.17;;
47429;SDS011;33181;49.246;7.372;2023-08-07T00:25:16;6.83;;;3.37;;
47429;SDS011;33181;49.246;7.372;2023-08-07T00:27:42;6.10;;;3.10;;
47429;SDS011;33181;49.246;7.372;2023-08-07T00:30:07;5.10;;;3.20;;
47429;SDS011;33181;49.246;7.372;2023-08-07T00:32:34;4.03;;;2.63;;
47429;SDS011;33181;49.246;7.372;2023-08-07T00:35:00;6.47;;;3.10;;
47429;SDS011;33181;49.246;7.372;2023-08-07T00:37:25;6.07;;;3.27;;
47429;SDS011;33181;49.246;7.372;2023-08-07T00:39:51;9.20;;;3.20;;
47429;SDS011;33181;49.246;7.372;2023-08-07T00:42:17;4.33;;;3.03;;
47429;SDS011;33181;49.246;7.372;2023-08-07T00:44:45;3.80;;;2.70;;
47429;SDS011;33181;49.246;7.372;2023-08-07T00:47:13;6.40;;;2.83;;
47429;SDS011;33181;49.246;7.372;2023-08-07T00:49:38;7.17;;;3.40;;
47429;SDS011;33181;49.246;7.372;2023-08-07T00:52:04;8.50;;;3.80;;
47429;SDS011;33181;49.246;7.372;2023-08-07T00:54:31;4.40;;;2.87;;
47429;SDS011;33181;49.246;7.372;2023-08-07T00:57:03;6.03;;;3.13;;
47429;SDS011;33181;49.246;7.372;2023-08-07T00:59:37;5.20;;;3.40;;
47429;SDS011;33181;49.246;7.372;2023-08-07T01:02:04;9.10;;;3.13;;
47429;SDS011;33181;49.246;7.372;2023-08-07T01:04:31;7.77;;;3.57;;
47429;SDS011;33181;49.246;7.372;2023-08-07T01:06:56;6.83;;;3.27;;
47429;SDS011;33181;49.246;7.372;2023-08-07T01:09:22;7.60;;;3.50;;
47429;SDS011;33181;49.246;7.372;2023-08-07T01:11:49;8.53;;;3.30;;
47429;SDS011;33181;49.246;7.372;2023-08-07T01:17:29;5.03;;;3.03;;
47429;SDS011;33181;49.246;7.372;2023-08-07T01:19:58;5.17;;;3.30;;
47429;SDS011;33181;49.246;7.372;2023-08-07T01:22:24;6.47;;;3.10;;
47429;SDS011;33181;49.246;7.372;2023-08-07T01:24:50;7.60;;;3.40;;
47429;SDS011;33181;49.246;7.372;2023-08-07T01:33:08;7.30;;;3.13;;
47429;SDS011;33181;49.246;7.372;2023-08-07T01:35:20;6.70;;;3.10;;
47429;SDS011;33181;49.246;7.372;2023-08-07T01:37:51;6.00;;;3.30;;
47429;SDS011;33181;49.246;7.372;2023-08-07T01:40:20;7.30;;;3.50;;
47429;SDS011;33181;49.246;7.372;2023-08-07T01:42:47;8.10;;;3.53;;
47429;SDS011;33181;49.246;7.372;2023-08-07T01:45:22;10.23;;;3.13;;
47429;SDS011;33181;49.246;7.372;2023-08-07T01:47:53;11.60;;;3.70;;
47429;SDS011;33181;49.246;7.372;2023-08-07T01:50:19;5.87;;;3.30;;
47429;SDS011;33181;49.246;7.372;2023-08-07T01:52:47;8.30;;;3.33;;
47429;SDS011;33181;49.246;7.372;2023-08-07T01:55:14;5.10;;;3.40;;
47429;SDS011;33181;49.246;7.372;2023-08-07T01:57:42;5.63;;;3.37;;
47429;SDS011;33181;49.246;7.372;2023-08-07T02:00:09;6.73;;;3.50;;
47429;SDS011;33181;49.246;7.372;2023-08-07T02:02:36;5.90;;;3.53;;
47429;SDS011;33181;49.246;7.372;2023-08-07T02:05:02;5.77;;;3.43;;
47429;SDS011;33181;49.246;7.372;2023-08-07T02:07:29;6.93;;;3.53;;
47429;SDS011;33181;49.246;7.372;2023-08-07T02:09:56;6.90;;;3.43;;
47429;SDS011;33181;49.246;7.372;2023-08-07T02:12:24;4.93;;;3.33;;
47429;SDS011;33181;49.246;7.372;2023-08-07T02:14:51;4.60;;;3.47;;
47429;SDS011;33181;49.246;7.372;2023-08-07T02:17:17;5.70;;;3.63;;
47429;SDS011;33181;49.246;7.372;2023-08-07T02:19:46;6.37;;;3.70;;
47429;SDS011;33181;49.246;7.372;2023-08-07T02:22:12;6.50;;;3.90;;
47429;SDS011;33181;49.246;7.372;2023-08-07T02:24:38;5.80;;;3.77;;
47429;SDS011;33181;49.246;7.372;2023-08-07T02:27:03;8.53;;;3.57;;
47429;SDS011;33181;49.246;7.372;2023-08-07T02:29:29;7.03;;;3.47;;
47429;SDS011;33181;49.246;7.372;2023-08-07T02:31:55;8.67;;;3.70;;
47429;SDS011;33181;49.246;7.372;2023-08-07T02:34:21;6.67;;;3.67;;
47429;SDS011;33181;49.246;7.372;2023-08-07T02:36:47;9.20;;;3.57;;
47429;SDS011;33181;49.246;7.372;2023-08-07T02:39:13;5.90;;;3.70;;
47429;SDS011;33181;49.246;7.372;2023-08-07T02:41:39;7.93;;;3.30;;
47429;SDS011;33181;49.246;7.372;2023-08-07T02:44:05;7.00;;;3.50;;
47429;SDS011;33181;49.246;7.372;2023-08-07T02:46:31;5.40;;;3.43;;
47429;SDS011;33181;49.246;7.372;2023-08-07T02:48:56;6.97;;;3.60;;
47429;SDS011;33181;49.246;7.372;2023-08-07T02:51:22;5.37;;;3.30;;
47429;SDS011;33181;49.246;7.372;2023-08-07T02:53:48;6.80;;;3.80;;
47429;SDS011;33181;49.246;7.372;2023-08-07T02:56:14;7.43;;;3.43;;
47429;SDS011;33181;49.246;7.372;2023-08-07T02:58:40;7.03;;;3.70;;
47429;SDS011;33181;49.246;7.372;2023-08-07T03:01:06;11.00;;;4.23;;
47429;SDS011;33181;49.246;7.372;2023-08-07T03:03:32;7.60;;;3.77;;
47429;SDS011;33181;49.246;7.372;2023-08-07T03:05:57;6.63;;;3.70;;
47429;SDS011;33181;49.246;7.372;2023-08-07T03:08:23;6.97;;;3.70;;
47429;SDS011;33181;49.246;7.372;2023-08-07T03:10:50;10.43;;;4.77;;
47429;SDS011;33181;49.246;7.372;2023-08-07T03:13:19;6.33;;;3.83;;
47429;SDS011;33181;49.246;7.372;2023-08-07T03:15:44;11.63;;;4.00;;
47429;SDS011;33181;49.246;7.372;2023-08-07T03:18:10;6.83;;;3.60;;
47429;SDS011;33181;49.246;7.372;2023-08-07T03:20:36;6.07;;;3.33;;
47429;SDS011;33181;49.246;7.372;2023-08-07T03:23:02;7.13;;;3.60;;
47429;SDS011;33181;49.246;7.372;2023-08-07T03:25:28;10.17;;;3.50;;
47429;SDS011;33181;49.246;7.372;2023-08-07T03:27:54;6.00;;;3.60;;
47429;SDS011;33181;49.246;7.372;2023-08-07T03:30:20;6.70;;;3.60;;
47429;SDS011;33181;49.246;7.372;2023-08-07T03:32:46;6.20;;;3.80;;
47429;SDS011;33181;49.246;7.372;2023-08-07T03:35:11;6.60;;;3.77;;
47429;SDS011;33181;49.246;7.372;2023-08-07T03:37:37;8.63;;;3.77;;
47429;SDS011;33181;49.246;7.372;2023-08-07T03:40:03;7.40;;;3.53;;
47429;SDS011;33181;49.246;7.372;2023-08-07T03:42:29;5.00;;;3.57;;
47429;SDS011;33181;49.246;7.372;2023-08-07T03:44:55;8.07;;;3.90;;
47429;SDS011;33181;49.246;7.372;2023-08-07T03:47:21;6.43;;;3.93;;
47429;SDS011;33181;49.246;7.372;2023-08-07T03:49:47;5.70;;;3.73;;
47429;SDS011;33181;49.246;7.372;2023-08-07T03:52:12;6.20;;;4.00;;
47429;SDS011;33181;49.246;7.372;2023-08-07T03:54:38;5.47;;;3.73;;
47429;SDS011;33181;49.246;7.372;2023-08-07T03:57:04;8.30;;;3.90;;
47429;SDS011;33181;49.246;7.372;2023-08-07T03:59:30;5.90;;;3.93;;
47429;SDS011;33181;49.246;7.372;2023-08-07T04:01:55;6.90;;;3.80;;
47429;SDS011;33181;49.246;7.372;2023-08-07T04:04:21;8.40;;;4.20;;
47429;SDS011;33181;49.246;7.372;2023-08-07T04:06:47;6.23;;;4.00;;
47429;SDS011;33181;49.246;7.372;2023-08-07T04:09:13;7.60;;;4.00;;
47429;SDS011;33181;49.246;7.372;2023-08-07T04:11:39;6.97;;;4.03;;
47429;SDS011;33181;49.246;7.372;2023-08-07T04:14:05;6.80;;;4.23;;
47429;SDS011;33181;49.246;7.372;2023-08-07T04:16:31;6.50;;;3.80;;
47429;SDS011;33181;49.246;7.372;2023-08-07T04:18:57;6.20;;;4.03;;
47429;SDS011;33181;49.246;7.372;2023-08-07T04:21:23;6.27;;;3.90;;
47429;SDS011;33181;49.246;7.372;2023-08-07T04:23:49;6.37;;;4.23;;
47429;SDS011;33181;49.246;7.372;2023-08-07T04:26:15;7.90;;;5.00;;
47429;SDS011;33181;49.246;7.372;2023-08-07T04:28:40;7.97;;;4.07;;
47429;SDS011;33181;49.246;7.372;2023-08-07T04:31:07;7.37;;;4.17;;
47429;SDS011;33181;49.246;7.372;2023-08-07T04:33:33;7.60;;;4.10;;
47429;SDS011;33181;49.246;7.372;2023-08-07T04:35:59;7.53;;;3.90;;
47429;SDS011;33181;49.246;7.372;2023-08-07T04:38:25;6.60;;;3.90;;
47429;SDS011;33181;49.246;7.372;2023-08-07T04:40:51;6.67;;;3.60;;
47429;SDS011;33181;49.246;7.372;2023-08-07T04:43:17;8.50;;;3.80;;
47429;SDS011;33181;49.246;7.372;2023-08-07T04:45:46;5.50;;;3.53;;
47429;SDS011;33181;49.246;7.372;2023-08-07T04:48:13;11.70;;;4.17;;
47429;SDS011;33181;49.246;7.372;2023-08-07T04:50:39;6.57;;;3.60;;
47429;SDS011;33181;49.246;7.372;2023-08-07T04:53:06;11.30;;;4.00;;
47429;SDS011;33181;49.246;7.372;2023-08-07T04:55:32;5.63;;;3.60;;
47429;SDS011;33181;49.246;7.372;2023-08-07T04:57:58;8.10;;;4.00;;
47429;SDS011;33181;49.246;7.372;2023-08-07T05:00:24;7.00;;;3.30;;
47429;SDS011;33181;49.246;7.372;2023-08-07T05:02:50;7.53;;;3.83;;
47429;SDS011;33181;49.246;7.372;2023-08-07T05:05:16;7.20;;;3.73;;
47429;SDS011;33181;49.246;7.372;2023-08-07T05:07:46;5.57;;;3.47;;
47429;SDS011;33181;49.246;7.372;2023-08-07T05:10:13;5.20;;;3.50;;
47429;SDS011;33181;49.246;7.372;2023-08-07T05:12:38;8.00;;;3.57;;
47429;SDS011;33181;49.246;7.372;2023-08-07T05:15:04;6.33;;;3.93;;
47429;SDS011;33181;49.246;7.372;2023-08-07T05:17:31;7.27;;;4.03;;
47429;SDS011;33181;49.246;7.372;2023-08-07T05:19:57;6.63;;;3.47;;
47429;SDS011;33181;49.246;7.372;2023-08-07T05:22:23;7.60;;;3.60;;
47429;SDS011;33181;49.246;7.372;2023-08-07T05:24:49;5.30;;;3.70;;
47429;SDS011;33181;49.246;7.372;2023-08-07T05:27:15;8.40;;;3.50;;
47429;SDS011;33181;49.246;7.372;2023-08-07T05:29:41;6.60;;;3.07;;
47429;SDS011;33181;49.246;7.372;2023-08-07T05:32:10;4.33;;;3.30;;
47429;SDS011;33181;49.246;7.372;2023-08-07T05:34:39;5.00;;;3.00;;
47429;SDS011;33181;49.246;7.372;2023-08-07T05:37:06;7.50;;;3.40;;
47429;SDS011;33181;49.246;7.372;2023-08-07T05:39:33;5.10;;;3.07;;
47429;SDS011;33181;49.246;7.372;2023-08-07T05:42:00;7.30;;;3.20;;
47429;SDS011;33181;49.246;7.372;2023-08-07T05:44:26;6.00;;;3.63;;
47429;SDS011;33181;49.246;7.372;2023-08-07T05:46:52;8.27;;;3.50;;
47429;SDS011;33181;49.246;7.372;2023-08-07T05:49:18;7.00;;;3.40;;
47429;SDS011;33181;49.246;7.372;2023-08-07T05:51:45;5.80;;;3.57;;
47429;SDS011;33181;49.246;7.372;2023-08-07T05:54:11;6.83;;;3.50;;
47429;SDS011;33181;49.246;7.372;2023-08-07T05:56:37;5.33;;;3.77;;
47429;SDS011;33181;49.246;7.372;2023-08-07T05:59:03;8.87;;;4.07;;
47429;SDS011;33181;49.246;7.372;2023-08-07T06:01:29;8.10;;;4.10;;
47429;SDS011;33181;49.246;7.372;2023-08-07T06:03:57;7.60;;;4.43;;
47429;SDS011;33181;49.246;7.372;2023-08-07T06:06:24;6.63;;;4.07;;
47429;SDS011;33181;49.246;7.372;2023-08-07T06:08:50;7.37;;;4.10;;
47429;SDS011;33181;49.246;7.372;2023-08-07T06:11:17;7.93;;;4.03;;
47429;SDS011;33181;49.246;7.372;2023-08-07T06:13:43;6.97;;;4.10;;
47429;SDS011;33181;49.246;7.372;2023-08-07T06:16:08;10.43;;;3.90;;
47429;SDS011;33181;49.246;7.372;2023-08-07T06:18:35;9.97;;;4.17;;
47429;SDS011;33181;49.246;7.372;2023-08-07T06:21:01;8.90;;;3.63;;
47429;SDS011;33181;49.246;7.372;2023-08-07T06:23:29;5.50;;;3.63;;
47429;SDS011;33181;49.246;7.372;2023-08-07T06:25:55;10.87;;;4.13;;
47429;SDS011;33181;49.246;7.372;2023-08-07T06:28:22;5.40;;;3.97;;
47429;SDS011;33181;49.246;7.372;2023-08-07T06:30:48;4.23;;;3.00;;
47429;SDS011;33181;49.246;7.372;2023-08-07T06:33:13;5.67;;;3.33;;
47429;SDS011;33181;49.246;7.372;2023-08-07T06:35:39;9.03;;;3.50;;
47429;SDS011;33181;49.246;7.372;2023-08-07T06:38:07;7.23;;;3.00;;
47429;SDS011;33181;49.246;7.372;2023-08-07T06:40:37;5.40;;;3.00;;
47429;SDS011;33181;49.246;7.372;2023-08-07T06:43:03;6.23;;;3.00;;
47429;SDS011;33181;49.246;7.372;2023-08-07T06:45:29;5.03;;;3.07;;
47429;SDS011;33181;49.246;7.372;2023-08-07T06:47:54;5.53;;;2.93;;
47429;SDS011;33181;49.246;7.372;2023-08-07T06:50:21;3.90;;;2.70;;
47429;SDS011;33181;49.246;7.372;2023-08-07T06:52:46;7.40;;;3.00;;
47429;SDS011;33181;49.246;7.372;2023-08-07T06:55:12;6.10;;;2.90;;
47429;SDS011;33181;49.246;7.372;2023-08-07T06:57:38;5.60;;;3.40;;
47429;SDS011;33181;49.246;7.372;2023-08-07T07:00:04;4.63;;;3.07;;
47429;SDS011;33181;49.246;7.372;2023-08-07T07:02:35;5.30;;;2.73;;
47429;SDS011;33181;49.246;7.372;2023-08-07T07:05:03;4.60;;;3.00;;
47429;SDS011;33181;49.246;7.372;2023-08-07T07:07:30;6.17;;;3.10;;
47429;SDS011;33181;49.246;7.372;2023-08-07T07:09:56;6.93;;;2.73;;
47429;SDS011;33181;49.246;7.372;2023-08-07T07:12:25;4.20;;;2.80;;
47429;SDS011;33181;49.246;7.372;2023-08-07T07:14:54;6.63;;;2.70;;
47429;SDS011;33181;49.246;7.372;2023-08-07T07:17:20;9.57;;;3.10;;
47429;SDS011;33181;49.246;7.372;2023-08-07T07:19:46;5.70;;;2.97;;
47429;SDS011;33181;49.246;7.372;2023-08-07T07:22:12;4.53;;;2.60;;
47429;SDS011;33181;49.246;7.372;2023-08-07T07:24:38;5.30;;;2.57;;
47429;SDS011;33181;49.246;7.372;2023-08-07T07:27:04;5.50;;;2.80;;
47429;SDS011;33181;49.246;7.372;2023-08-07T07:29:30;7.23;;;3.07;;
47429;SDS011;33181;49.246;7.372;2023-08-07T07:31:56;6.10;;;3.10;;
47429;SDS011;33181;49.246;7.372;2023-08-07T07:34:22;3.73;;;2.50;;
47429;SDS011;33181;49.246;7.372;2023-08-07T07:36:47;4.10;;;2.60;;
47429;SDS011;33181;49.246;7.372;2023-08-07T07:39:13;7.03;;;2.90;;
47429;SDS011;33181;49.246;7.372;2023-08-07T07:41:39;4.73;;;3.40;;
47429;SDS011;33181;49.246;7.372;2023-08-07T07:44:05;5.03;;;2.73;;
47429;SDS011;33181;49.246;7.372;2023-08-07T07:46:31;4.90;;;2.90;;
47429;SDS011;33181;49.246;7.372;2023-08-07T07:48:57;10.63;;;2.60;;
47429;SDS011;33181;49.246;7.372;2023-08-07T07:51:24;7.27;;;3.00;;
47429;SDS011;33181;49.246;7.372;2023-08-07T07:53:50;6.03;;;2.60;;
47429;SDS011;33181;49.246;7.372;2023-08-07T07:56:16;4.50;;;2.93;;
47429;SDS011;33181;49.246;7.372;2023-08-07T07:58:42;6.40;;;3.20;;
47429;SDS011;33181;49.246;7.372;2023-08-07T08:01:08;6.93;;;3.07;;
47429;SDS011;33181;49.246;7.372;2023-08-07T08:03:35;4.77;;;3.00;;
47429;SDS011;33181;49.246;7.372;2023-08-07T08:06:01;4.80;;;2.90;;
47429;SDS011;33181;49.246;7.372;2023-08-07T08:08:26;4.40;;;2.73;;
47429;SDS011;33181;49.246;7.372;2023-08-07T08:10:52;4.00;;;2.60;;
47429;SDS011;33181;49.246;7.372;2023-08-07T08:13:18;7.63;;;3.10;;
47429;SDS011;33181;49.246;7.372;2023-08-07T08:15:44;5.17;;;2.83;;
47429;SDS011;33181;49.246;7.372;2023-08-07T08:18:10;6.00;;;3.27;;
47429;SDS011;33181;49.246;7.372;2023-08-07T08:20:40;11.00;;;4.13;;
47429;SDS011;33181;49.246;7.372;2023-08-07T08:23:05;4.80;;;2.60;;
47429;SDS011;33181;49.246;7.372;2023-08-07T08:25:32;5.70;;;2.70;;
47429;SDS011;33181;49.246;7.372;2023-08-07T08:27:58;5.67;;;2.83;;
47429;SDS011;33181;49.246;7.372;2023-08-07T08:30:25;7.17;;;3.30;;
47429;SDS011;33181;49.246;7.372;2023-08-07T08:32:51;4.43;;;2.50;;
47429;SDS011;33181;49.246;7.372;2023-08-07T08:35:17;5.23;;;2.83;;
47429;SDS011;33181;49.246;7.372;2023-08-07T08:37:42;6.70;;;2.67;;
47429;SDS011;33181;49.246;7.372;2023-08-07T08:40:09;5.53;;;2.70;;
47429;SDS011;33181;49.246;7.372;2023-08-07T08:42:37;5.53;;;2.70;;
47429;SDS011;33181;49.246;7.372;2023-08-07T08:45:05;7.17;;;2.90;;
47429;SDS011;33181;49.246;7.372;2023-08-07T08:47:37;12.30;;;2.80;;
47429;SDS011;33181;49.246;7.372;2023-08-07T08:50:08;5.10;;;2.80;;
47429;SDS011;33181;49.246;7.372;2023-08-07T08:52:38;5.03;;;2.87;;
47429;SDS011;33181;49.246;7.372;2023-08-07T08:55:07;4.90;;;2.70;;
47429;SDS011;33181;49.246;7.372;2023-08-07T08:57:37;5.90;;;2.93;;
47429;SDS011;33181;49.246;7.372;2023-08-07T09:00:05;5.07;;;2.73;;
47429;SDS011;33181;49.246;7.372;2023-08-07T09:02:40;5.03;;;2.60;;
47429;SDS011;33181;49.246;7.372;2023-08-07T09:05:08;4.63;;;2.70;;
47429;SDS011;33181;49.246;7.372;2023-08-07T09:07:34;5.27;;;2.70;;
47429;SDS011;33181;49.246;7.372;2023-08-07T09:10:01;5.10;;;2.50;;
47429;SDS011;33181;49.246;7.372;2023-08-07T09:12:29;4.13;;;2.70;;
47429;SDS011;33181;49.246;7.372;2023-08-07T09:14:57;6.07;;;2.70;;
47429;SDS011;33181;49.246;7.372;2023-08-07T09:17:24;5.97;;;2.67;;
47429;SDS011;33181;49.246;7.372;2023-08-07T09:19:56;3.13;;;2.30;;
47429;SDS011;33181;49.246;7.372;2023-08-07T09:22:23;4.00;;;2.33;;
47429;SDS011;33181;49.246;7.372;2023-08-07T09:24:49;3.50;;;2.27;;
47429;SDS011;33181;49.246;7.372;2023-08-07T09:27:15;4.13;;;2.20;;
47429;SDS011;33181;49.246;7.372;2023-08-07T09:29:41;5.40;;;2.77;;
47429;SDS011;33181;49.246;7.372;2023-08-07T09:32:11;3.00;;;2.20;;
47429;SDS011;33181;49.246;7.372;2023-08-07T09:34:41;3.37;;;2.37;;
47429;SDS011;33181;49.246;7.372;2023-08-07T09:37:08;4.90;;;2.70;;
47429;SDS011;33181;49.246;7.372;2023-08-07T09:39:35;4.20;;;2.60;;
47429;SDS011;33181;49.246;7.372;2023-08-07T09:42:04;5.43;;;2.37;;
47429;SDS011;33181;49.246;7.372;2023-08-07T09:44:38;4.70;;;2.30;;
47429;SDS011;33181;49.246;7.372;2023-08-07T09:47:13;5.20;;;2.50;;
47429;SDS011;33181;49.246;7.372;2023-08-07T09:49:41;4.43;;;2.30;;
47429;SDS011;33181;49.246;7.372;2023-08-07T09:52:09;4.00;;;2.47;;
47429;SDS011;33181;49.246;7.372;2023-08-07T09:54:40;4.03;;;2.20;;
47429;SDS011;33181;49.246;7.372;2023-08-07T09:57:07;7.23;;;2.60;;
47429;SDS011;33181;49.246;7.372;2023-08-07T09:59:33;3.73;;;2.40;;
47429;SDS011;33181;49.246;7.372;2023-08-07T10:02:00;4.60;;;2.57;;
47429;SDS011;33181;49.246;7.372;2023-08-07T10:04:27;3.40;;;2.17;;
47429;SDS011;33181;49.246;7.372;2023-08-07T10:06:53;3.70;;;2.37;;
47429;SDS011;33181;49.246;7.372;2023-08-07T10:09:19;3.87;;;2.30;;
47429;SDS011;33181;49.246;7.372;2023-08-07T10:11:46;4.73;;;2.33;;
47429;SDS011;33181;49.246;7.372;2023-08-07T10:14:13;4.20;;;2.60;;
47429;SDS011;33181;49.246;7.372;2023-08-07T10:16:40;5.80;;;2.60;;
47429;SDS011;33181;49.246;7.372;2023-08-07T10:19:07;4.80;;;2.70;;
47429;SDS011;33181;49.246;7.372;2023-08-07T10:21:37;4.70;;;2.73;;
47429;SDS011;33181;49.246;7.372;2023-08-07T10:24:05;3.70;;;2.83;;
47429;SDS011;33181;49.246;7.372;2023-08-07T10:26:33;4.67;;;2.63;;
47429;SDS011;33181;49.246;7.372;2023-08-07T10:29:02;8.47;;;2.57;;
47429;SDS011;33181;49.246;7.372;2023-08-07T10:31:33;5.13;;;2.73;;
47429;SDS011;33181;49.246;7.372;2023-08-07T10:34:01;4.70;;;2.50;;
47429;SDS011;33181;49.246;7.372;2023-08-07T10:36:33;4.23;;;2.70;;
47429;SDS011;33181;49.246;7.372;2023-08-07T10:39:07;5.33;;;2.83;;
47429;SDS011;33181;49.246;7.372;2023-08-07T10:41:45;4.03;;;2.50;;
47429;SDS011;33181;49.246;7.372;2023-08-07T10:44:18;3.53;;;2.43;;
47429;SDS011;33181;49.246;7.372;2023-08-07T10:46:49;4.27;;;2.80;;
47429;SDS011;33181;49.246;7.372;2023-08-07T10:54:37;5.63;;;2.77;;
47429;SDS011;33181;49.246;7.372;2023-08-07T10:57:11;5.40;;;2.90;;
47429;SDS011;33181;49.246;7.372;2023-08-07T10:59:43;4.53;;;2.70;;
47429;SDS011;33181;49.246;7.372;2023-08-07T11:02:21;5.00;;;3.30;;
47429;SDS011;33181;49.246;7.372;2023-08-07T11:04:52;5.80;;;3.20;;
47429;SDS011;33181;49.246;7.372;2023-08-07T11:07:25;4.90;;;2.60;;
47429;SDS011;33181;49.246;7.372;2023-08-07T11:09:53;4.60;;;3.00;;
47429;SDS011;33181;49.246;7.372;2023-08-07T11:12:20;6.40;;;2.77;;
47429;SDS011;33181;49.246;7.372;2023-08-07T11:14:46;4.53;;;2.60;;
47429;SDS011;33181;49.246;7.372;2023-08-07T11:17:12;4.30;;;2.97;;
47429;SDS011;33181;49.246;7.372;2023-08-07T11:19:38;4.40;;;2.87;;
47429;SDS011;33181;49.246;7.372;2023-08-07T11:22:04;4.83;;;2.70;;
47429;SDS011;33181;49.246;7.372;2023-08-07T11:24:30;5.00;;;3.13;;
47429;SDS011;33181;49.246;7.372;2023-08-07T11:26:56;4.53;;;2.83;;
47429;SDS011;33181;49.246;7.372;2023-08-07T11:29:23;4.30;;;3.10;;
47429;SDS011;33181;49.246;7.372;2023-08-07T11:31:50;3.87;;;2.80;;
47429;SDS011;33181;49.246;7.372;2023-08-07T11:34:17;4.07;;;2.93;;
47429;SDS011;33181;49.246;7.372;2023-08-07T11:36:44;6.00;;;2.90;;
47429;SDS011;33181;49.246;7.372;2023-08-07T11:39:11;3.93;;;3.07;;
47429;SDS011;33181;49.246;7.372;2023-08-07T11:41:39;5.80;;;2.90;;
47429;SDS011;33181;49.246;7.372;2023-08-07T11:44:09;3.30;;;2.80;;
47429;SDS011;33181;49.246;7.372;2023-08-07T11:46:35;4.73;;;3.00;;
47429;SDS011;33181;49.246;7.372;2023-08-07T11:49:01;5.03;;;2.97;;
47429;SDS011;33181;49.246;7.372;2023-08-07T11:51:29;6.33;;;2.73;;
47429;SDS011;33181;49.246;7.372;2023-08-07T11:53:55;5.73;;;3.10;;
47429;SDS011;33181;49.246;7.372;2023-08-07T11:56:23;5.50;;;3.07;;
47429;SDS011;33181;49.246;7.372;2023-08-07T11:58:50;4.93;;;2.97;;
47429;SDS011;33181;49.246;7.372;2023-08-07T12:01:20;4.60;;;3.13;;
47429;SDS011;33181;49.246;7.372;2023-08-07T12:04:07;4.73;;;3.23;;
47429;SDS011;33181;49.246;7.372;2023-08-07T12:06:36;4.97;;;3.13;;
47429;SDS011;33181;49.246;7.372;2023-08-07T12:09:07;5.43;;;3.20;;
47429;SDS011;33181;49.246;7.372;2023-08-07T12:11:37;5.93;;;3.30;;
47429;SDS011;33181;49.246;7.372;2023-08-07T12:14:03;6.40;;;3.53;;
47429;SDS011;33181;49.246;7.372;2023-08-07T12:16:32;7.73;;;3.23;;
47429;SDS011;33181;49.246;7.372;2023-08-07T12:18:59;4.67;;;3.47;;
47429;SDS011;33181;49.246;7.372;2023-08-07T12:21:25;4.60;;;3.73;;
47429;SDS011;33181;49.246;7.372;2023-08-07T12:23:54;5.10;;;3.43;;
47429;SDS011;33181;49.246;7.372;2023-08-07T12:26:21;5.93;;;3.57;;
47429;SDS011;33181;49.246;7.372;2023-08-07T12:28:47;4.60;;;3.50;;
47429;SDS011;33181;49.246;7.372;2023-08-07T12:31:12;4.70;;;3.00;;
47429;SDS011;33181;49.246;7.372;2023-08-07T12:33:38;4.40;;;3.10;;
47429;SDS011;33181;49.246;7.372;2023-08-07T12:36:04;5.17;;;3.60;;
47429;SDS011;33181;49.246;7.372;2023-08-07T12:38:30;6.10;;;3.30;;
47429;SDS011;33181;49.246;7.372;2023-08-07T12:40:56;4.63;;;3.17;;
47429;SDS011;33181;49.246;7.372;2023-08-07T12:43:22;6.40;;;3.23;;
47429;SDS011;33181;49.246;7.372;2023-08-07T12:45:48;4.07;;;3.00;;
47429;SDS011;33181;49.246;7.372;2023-08-07T12:48:14;6.10;;;3.10;;
47429;SDS011;33181;49.246;7.372;2023-08-07T12:50:40;3.43;;;2.80;;
47429;SDS011;33181;49.246;7.372;2023-08-07T12:53:06;4.40;;;3.30;;
47429;SDS011;33181;49.246;7.372;2023-08-07T12:55:33;6.70;;;3.40;;
47429;SDS011;33181;49.246;7.372;2023-08-07T12:57:59;4.43;;;3.33;;
47429;SDS011;33181;49.246;7.372;2023-08-07T13:00:25;4.50;;;3.30;;
47429;SDS011;33181;49.246;7.372;2023-08-07T13:02:51;5.73;;;3.43;;
47429;SDS011;33181;49.246;7.372;2023-08-07T13:05:18;3.93;;;2.97;;
47429;SDS011;33181;49.246;7.372;2023-08-07T13:07:45;6.00;;;3.77;;
47429;SDS011;33181;49.246;7.372;2023-08-07T13:10:12;4.83;;;3.50;;
47429;SDS011;33181;49.246;7.372;2023-08-07T13:12:41;4.73;;;3.50;;
47429;SDS011;33181;49.246;7.372;2023-08-07T13:15:09;4.93;;;3.50;;
47429;SDS011;33181;49.246;7.372;2023-08-07T13:17:39;4.60;;;3.30;;
47429;SDS011;33181;49.246;7.372;2023-08-07T13:20:06;6.33;;;3.40;;
47429;SDS011;33181;49.246;7.372;2023-08-07T13:22:36;4.73;;;3.47;;
47429;SDS011;33181;49.246;7.372;2023-08-07T13:25:03;4.73;;;3.33;;
47429;SDS011;33181;49.246;7.372;2023-08-07T13:27:30;5.67;;;3.50;;
47429;SDS011;33181;49.246;7.372;2023-08-07T13:29:58;4.30;;;3.07;;
47429;SDS011;33181;49.246;7.372;2023-08-07T13:32:24;3.80;;;3.20;;
47429;SDS011;33181;49.246;7.372;2023-08-07T13:34:51;4.37;;;3.13;;
47429;SDS011;33181;49.246;7.372;2023-08-07T13:37:17;4.30;;;3.10;;
47429;SDS011;33181;49.246;7.372;2023-08-07T13:39:42;5.00;;;3.30;;
47429;SDS011;33181;49.246;7.372;2023-08-07T13:42:08;3.50;;;2.87;;
47429;SDS011;33181;49.246;7.372;2023-08-07T13:44:35;5.20;;;2.90;;
47429;SDS011;33181;49.246;7.372;2023-08-07T13:47:04;5.53;;;3.20;;
47429;SDS011;33181;49.246;7.372;2023-08-07T13:49:31;5.13;;;3.17;;
47429;SDS011;33181;49.246;7.372;2023-08-07T13:51:57;5.33;;;3.20;;
47429;SDS011;33181;49.246;7.372;2023-08-07T13:54:23;4.80;;;3.20;;
47429;SDS011;33181;49.246;7.372;2023-08-07T13:56:48;4.47;;;2.90;;
47429;SDS011;33181;49.246;7.372;2023-08-07T13:59:15;10.63;;;3.30;;
47429;SDS011;33181;49.246;7.372;2023-08-07T14:01:41;6.27;;;2.83;;
47429;SDS011;33181;49.246;7.372;2023-08-07T14:04:07;5.23;;;3.20;;
47429;SDS011;33181;49.246;7.372;2023-08-07T14:06:32;4.60;;;2.90;;
47429;SDS011;33181;49.246;7.372;2023-08-07T14:08:58;7.83;;;3.03;;
47429;SDS011;33181;49.246;7.372;2023-08-07T14:11:24;3.90;;;2.90;;
47429;SDS011;33181;49.246;7.372;2023-08-07T14:13:55;3.93;;;3.00;;
47429;SDS011;33181;49.246;7.372;2023-08-07T14:16:22;7.00;;;2.80;;
47429;SDS011;33181;49.246;7.372;2023-08-07T14:18:48;4.70;;;2.80;;
47429;SDS011;33181;49.246;7.372;2023-08-07T14:21:14;3.90;;;3.13;;
47429;SDS011;33181;49.246;7.372;2023-08-07T14:23:40;4.03;;;2.93;;
47429;SDS011;33181;49.246;7.372;2023-08-07T14:26:07;4.40;;;2.90;;
47429;SDS011;33181;49.246;7.372;2023-08-07T14:28:33;4.07;;;3.17;;
47429;SDS011;33181;49.246;7.372;2023-08-07T14:30:59;4.60;;;3.27;;
47429;SDS011;33181;49.246;7.372;2023-08-07T14:33:26;4.10;;;3.07;;
47429;SDS011;33181;49.246;7.372;2023-08-07T14:35:53;5.07;;;2.90;;
47429;SDS011;33181;49.246;7.372;2023-08-07T14:38:19;3.70;;;2.47;;
47429;SDS011;33181;49.246;7.372;2023-08-07T14:40:44;3.93;;;2.77;;
47429;SDS011;33181;49.246;7.372;2023-08-07T14:43:10;3.50;;;2.67;;
47429;SDS011;33181;49.246;7.372;2023-08-07T14:45:36;5.43;;;3.27;;
47429;SDS011;33181;49.246;7.372;2023-08-07T14:48:02;5.10;;;3.00;;
47429;SDS011;33181;49.246;7.372;2023-08-07T14:50:28;3.47;;;2.73;;
47429;SDS011;33181;49.246;7.372;2023-08-07T14:52:54;5.70;;;2.60;;
47429;SDS011;33181;49.246;7.372;2023-08-07T14:55:20;4.77;;;2.70;;
47429;SDS011;33181;49.246;7.372;2023-08-07T14:57:45;3.13;;;2.70;;
47429;SDS011;33181;49.246;7.372;2023-08-07T15:00:11;5.27;;;2.80;;